createdAt,value
2023-05-21T00:00:14.031Z,22.97
2023-05-21T00:01:14.073Z,22.98
2023-05-21T00:02:14.137Z,22.97
2023-05-21T00:03:14.376Z,22.97
2023-05-21T00:04:14.317Z,22.97
2023-05-21T00:05:14.936Z,22.94
2023-05-21T00:06:14.425Z,22.97
2023-05-21T00:07:14.433Z,22.95
2023-05-21T00:08:14.466Z,22.94
2023-05-21T00:09:14.555Z,22.95
2023-05-21T00:10:14.642Z,22.97
2023-05-21T00:11:14.668Z,22.94
2023-05-21T00:12:14.727Z,22.94
2023-05-21T00:13:14.805Z,22.95
2023-05-21T00:14:14.865Z,22.93
2023-05-21T00:15:14.931Z,22.94
2023-05-21T00:16:16.949Z,22.95
2023-05-21T00:17:15.032Z,22.93
2023-05-21T00:18:15.107Z,22.94
2023-05-21T00:19:15.196Z,22.93
2023-05-21T00:20:15.238Z,22.93
2023-05-21T00:21:15.281Z,22.94
2023-05-21T00:22:15.338Z,22.91
2023-05-21T00:23:15.387Z,22.91
2023-05-21T00:24:15.529Z,22.90
2023-05-21T00:25:15.609Z,22.90
2023-05-21T00:26:15.542Z,22.90
2023-05-21T00:27:15.656Z,22.90
2023-05-21T00:28:15.647Z,22.88
2023-05-21T00:29:15.697Z,22.87
2023-05-21T00:30:15.704Z,22.87
2023-05-21T00:31:15.785Z,22.87
2023-05-21T00:32:15.813Z,22.85
2023-05-21T00:33:15.777Z,22.85
2023-05-21T00:34:15.827Z,22.87
2023-05-21T00:35:15.887Z,22.85
2023-05-21T00:36:15.902Z,22.84
2023-05-21T00:37:15.914Z,22.84
2023-05-21T00:38:15.972Z,22.84
2023-05-21T00:39:15.975Z,22.87
2023-05-21T00:40:15.968Z,22.84
2023-05-21T00:41:15.973Z,22.84
2023-05-21T00:42:16.006Z,22.84
2023-05-21T00:43:15.996Z,22.81
2023-05-21T00:44:16.000Z,22.84
2023-05-21T00:45:16.007Z,22.81
2023-05-21T00:46:16.083Z,22.81
2023-05-21T00:47:16.022Z,22.81
2023-05-21T00:48:16.040Z,22.81
2023-05-21T00:49:16.015Z,22.79
2023-05-21T00:50:15.993Z,22.81
2023-05-21T00:51:16.065Z,22.76
2023-05-21T00:52:16.018Z,22.76
2023-05-21T00:53:15.982Z,22.76
2023-05-21T00:54:16.000Z,22.81
2023-05-21T00:55:16.015Z,22.79
2023-05-21T00:56:16.017Z,22.76
2023-05-21T00:57:16.015Z,22.76
2023-05-21T00:58:15.993Z,22.78
2023-05-21T00:59:15.998Z,22.79
2023-05-21T01:00:16.011Z,22.78
2023-05-21T01:01:16.014Z,22.75
2023-05-21T01:02:15.984Z,22.75
2023-05-21T01:03:16.099Z,22.75
2023-05-21T01:04:15.958Z,22.74
2023-05-21T01:05:15.957Z,22.74
2023-05-21T01:06:15.956Z,22.74
2023-05-21T01:07:15.962Z,22.74
2023-05-21T01:08:15.957Z,22.72
2023-05-21T01:09:15.963Z,22.72
2023-05-21T01:10:15.985Z,22.71
2023-05-21T01:11:15.946Z,22.71
2023-05-21T01:12:15.938Z,22.72
2023-05-21T01:13:15.956Z,22.72
2023-05-21T01:14:15.962Z,22.72
2023-05-21T01:15:15.982Z,22.70
2023-05-21T01:16:15.949Z,22.71
2023-05-21T01:17:16.446Z,22.71
2023-05-21T01:18:16.075Z,22.71
2023-05-21T01:19:16.047Z,22.71
2023-05-21T01:20:15.921Z,22.68
2023-05-21T01:21:15.938Z,22.70
2023-05-21T01:22:15.961Z,22.70
2023-05-21T01:23:15.927Z,22.67
2023-05-21T01:24:15.960Z,22.70
2023-05-21T01:25:15.942Z,22.70
2023-05-21T01:26:16.168Z,22.65
2023-05-21T01:27:15.942Z,22.65
2023-05-21T01:28:15.957Z,22.65
2023-05-21T01:29:15.964Z,22.65
2023-05-21T01:30:15.924Z,22.67
2023-05-21T01:31:15.941Z,22.67
2023-05-21T01:32:15.955Z,22.65
2023-05-21T01:33:16.040Z,22.64
2023-05-21T01:34:15.983Z,22.67
2023-05-21T01:35:15.918Z,22.65
2023-05-21T01:36:16.017Z,22.64
2023-05-21T01:37:15.999Z,22.64
2023-05-21T01:38:15.972Z,22.62
2023-05-21T01:39:16.007Z,22.62
2023-05-21T01:40:15.889Z,22.65
2023-05-21T01:41:15.920Z,22.62
2023-05-21T01:42:16.024Z,22.64
2023-05-21T01:43:15.888Z,22.61
2023-05-21T01:44:15.902Z,22.62
2023-05-21T01:45:16.037Z,22.60
2023-05-21T01:46:15.921Z,22.60
2023-05-21T01:47:15.904Z,22.60
2023-05-21T01:48:15.909Z,22.60
2023-05-21T01:49:15.948Z,22.58
2023-05-21T01:50:15.998Z,22.60
2023-05-21T01:51:15.938Z,22.60
2023-05-21T01:52:15.956Z,22.60
2023-05-21T01:53:15.965Z,22.58
2023-05-21T01:54:15.987Z,22.58
2023-05-21T01:55:15.953Z,22.61
2023-05-21T01:56:15.960Z,22.60
2023-05-21T01:57:16.094Z,22.58
2023-05-21T01:58:15.994Z,22.55
2023-05-21T01:59:15.973Z,22.57
2023-05-21T02:00:16.030Z,22.58
2023-05-21T02:01:16.013Z,22.57
2023-05-21T02:02:16.199Z,22.55
2023-05-21T02:03:16.258Z,22.54
2023-05-21T02:04:16.063Z,22.54
2023-05-21T02:05:16.073Z,22.55
2023-05-21T02:06:16.206Z,22.52
2023-05-21T02:07:16.193Z,22.54
2023-05-21T02:08:16.217Z,22.55
2023-05-21T02:09:16.116Z,22.52
2023-05-21T02:10:16.201Z,22.54
2023-05-21T02:11:16.293Z,22.54
2023-05-21T02:12:16.155Z,22.54
2023-05-21T02:13:16.168Z,22.51
2023-05-21T02:14:16.157Z,22.52
2023-05-21T02:15:16.196Z,22.52
2023-05-21T02:16:16.261Z,22.51
2023-05-21T02:17:16.204Z,22.51
2023-05-21T02:18:16.736Z,22.50
2023-05-21T02:19:16.326Z,22.48
2023-05-21T02:20:16.320Z,22.50
2023-05-21T02:21:16.254Z,22.48
2023-05-21T02:22:16.276Z,22.50
2023-05-21T02:23:16.320Z,22.50
2023-05-21T02:24:16.279Z,22.48
2023-05-21T02:25:16.333Z,22.48
2023-05-21T02:26:16.328Z,22.50
2023-05-21T02:27:16.332Z,22.45
2023-05-21T02:28:16.369Z,22.45
2023-05-21T02:29:16.377Z,22.47
2023-05-21T02:30:16.402Z,22.47
2023-05-21T02:31:16.414Z,22.45
2023-05-21T02:32:16.428Z,22.45
2023-05-21T02:33:16.480Z,22.45
2023-05-21T02:34:16.517Z,22.45
2023-05-21T02:35:16.501Z,22.45
2023-05-21T02:36:16.516Z,22.44
2023-05-21T02:37:16.525Z,22.45
2023-05-21T02:38:16.561Z,22.45
2023-05-21T02:39:16.562Z,22.44
2023-05-21T02:40:16.595Z,22.44
2023-05-21T02:41:16.630Z,22.44
2023-05-21T02:42:16.613Z,22.44
2023-05-21T02:43:16.761Z,22.44
2023-05-21T02:44:16.683Z,22.43
2023-05-21T02:45:16.677Z,22.44
2023-05-21T02:46:16.779Z,22.44
2023-05-21T02:47:16.749Z,22.45
2023-05-21T02:48:16.752Z,22.45
2023-05-21T02:49:16.768Z,22.44
2023-05-21T02:50:16.798Z,22.44
2023-05-21T02:51:16.765Z,22.45
2023-05-21T02:52:16.808Z,22.44
2023-05-21T02:53:16.846Z,22.44
2023-05-21T02:54:16.851Z,22.43
2023-05-21T02:55:16.868Z,22.44
2023-05-21T02:56:16.841Z,22.41
2023-05-21T02:57:16.856Z,22.41
2023-05-21T02:58:16.923Z,22.41
2023-05-21T02:59:16.928Z,22.40
2023-05-21T03:00:16.928Z,22.44
2023-05-21T03:01:17.057Z,22.41
2023-05-21T03:02:17.004Z,22.44
2023-05-21T03:03:17.164Z,22.43
2023-05-21T03:04:16.977Z,22.41
2023-05-21T03:05:17.019Z,22.44
2023-05-21T03:06:17.012Z,22.41
2023-05-21T03:07:17.038Z,22.41
2023-05-21T03:08:17.047Z,22.41
2023-05-21T03:09:17.087Z,22.43
2023-05-21T03:10:17.106Z,22.41
2023-05-21T03:11:17.131Z,22.41
2023-05-21T03:12:17.121Z,22.41
2023-05-21T03:13:17.198Z,22.38
2023-05-21T03:14:17.168Z,22.40
2023-05-21T03:15:17.190Z,22.40
2023-05-21T03:16:17.246Z,22.41
2023-05-21T03:17:17.264Z,22.40
2023-05-21T03:18:17.250Z,22.40
2023-05-21T03:19:17.316Z,22.41
2023-05-21T03:20:17.301Z,22.37
2023-05-21T03:21:17.267Z,22.38
2023-05-21T03:22:17.296Z,22.37
2023-05-21T03:23:17.325Z,22.37
2023-05-21T03:24:17.356Z,22.37
2023-05-21T03:25:17.420Z,22.37
2023-05-21T03:26:17.411Z,22.34
2023-05-21T03:27:17.416Z,22.35
2023-05-21T03:28:17.443Z,22.35
2023-05-21T03:29:17.500Z,22.35
2023-05-21T03:30:17.532Z,22.37
2023-05-21T03:31:17.521Z,22.34
2023-05-21T03:32:17.635Z,22.35
2023-05-21T03:33:17.557Z,22.35
2023-05-21T03:34:17.561Z,22.35
2023-05-21T03:35:17.620Z,22.34
2023-05-21T03:36:17.619Z,22.33
2023-05-21T03:37:17.649Z,22.33
2023-05-21T03:38:17.653Z,22.34
2023-05-21T03:39:17.682Z,22.33
2023-05-21T03:40:17.719Z,22.31
2023-05-21T03:41:17.726Z,22.30
2023-05-21T03:42:17.744Z,22.30
2023-05-21T03:43:17.776Z,22.28
2023-05-21T03:44:17.807Z,22.31
2023-05-21T03:45:17.861Z,22.30
2023-05-21T03:46:17.858Z,22.27
2023-05-21T03:47:17.883Z,22.30
2023-05-21T03:48:17.916Z,22.27
2023-05-21T03:49:17.949Z,22.28
2023-05-21T03:50:17.997Z,22.28
2023-05-21T03:51:18.043Z,22.27
2023-05-21T03:52:18.054Z,22.27
2023-05-21T03:53:18.124Z,22.28
2023-05-21T03:54:18.069Z,22.30
2023-05-21T03:55:18.141Z,22.27
2023-05-21T03:56:18.125Z,22.27
2023-05-21T03:57:18.169Z,22.27
2023-05-21T03:58:18.210Z,22.25
2023-05-21T03:59:18.207Z,22.25
2023-05-21T04:00:18.274Z,22.27
2023-05-21T04:01:18.308Z,22.24
2023-05-21T04:02:18.454Z,22.24
2023-05-21T04:03:18.596Z,22.24
2023-05-21T04:04:18.452Z,22.23
2023-05-21T04:05:18.431Z,22.21
2023-05-21T04:06:18.436Z,22.23
2023-05-21T04:07:18.497Z,22.23
2023-05-21T04:08:18.536Z,22.20
2023-05-21T04:09:18.543Z,22.18
2023-05-21T04:10:18.595Z,22.18
2023-05-21T04:11:18.624Z,22.18
2023-05-21T04:12:18.684Z,22.18
2023-05-21T04:13:18.720Z,22.17
2023-05-21T04:14:18.752Z,22.15
2023-05-21T04:15:18.770Z,22.15
2023-05-21T04:16:18.879Z,22.14
2023-05-21T04:17:18.866Z,22.18
2023-05-21T04:18:18.917Z,22.17
2023-05-21T04:19:19.195Z,22.17
2023-05-21T04:20:18.992Z,22.15
2023-05-21T04:21:19.046Z,22.17
2023-05-21T04:22:19.064Z,22.17
2023-05-21T04:23:19.113Z,22.18
2023-05-21T04:24:19.154Z,22.15
2023-05-21T04:25:19.242Z,22.17
2023-05-21T04:26:19.238Z,22.15
2023-05-21T04:27:19.304Z,22.15
2023-05-21T04:28:19.343Z,22.17
2023-05-21T04:29:19.364Z,22.13
2023-05-21T04:30:19.397Z,22.15
2023-05-21T04:31:19.455Z,22.14
2023-05-21T04:32:19.494Z,22.14
2023-05-21T04:33:19.549Z,22.14
2023-05-21T04:34:19.589Z,22.15
2023-05-21T04:35:19.640Z,22.15
2023-05-21T04:36:19.636Z,22.15
2023-05-21T04:37:19.680Z,22.17
2023-05-21T04:38:19.786Z,22.14
2023-05-21T04:39:19.739Z,22.15
2023-05-21T04:40:19.795Z,22.15
2023-05-21T04:41:19.803Z,22.15
2023-05-21T04:42:19.855Z,22.15
2023-05-21T04:43:19.915Z,22.17
2023-05-21T04:44:19.953Z,22.13
2023-05-21T04:45:19.964Z,22.14
2023-05-21T04:46:20.151Z,22.14
2023-05-21T04:47:20.215Z,22.15
2023-05-21T04:48:20.089Z,22.15
2023-05-21T04:49:20.136Z,22.15
2023-05-21T04:50:20.156Z,22.14
2023-05-21T04:51:20.212Z,22.15
2023-05-21T04:52:20.274Z,22.14
2023-05-21T04:53:20.289Z,22.15
2023-05-21T04:54:20.308Z,22.15
2023-05-21T04:55:20.352Z,22.14
2023-05-21T04:56:20.381Z,22.17
2023-05-21T04:57:20.479Z,22.15
2023-05-21T04:58:20.493Z,22.15
2023-05-21T04:59:20.516Z,22.14
2023-05-21T05:00:20.568Z,22.15
2023-05-21T05:01:20.638Z,22.17
2023-05-21T05:02:20.647Z,22.17
2023-05-21T05:03:20.731Z,22.14
2023-05-21T05:04:20.708Z,22.13
2023-05-21T05:05:20.772Z,22.17
2023-05-21T05:06:20.802Z,22.17
2023-05-21T05:07:20.805Z,22.15
2023-05-21T05:08:20.832Z,22.18
2023-05-21T05:09:20.902Z,22.17
2023-05-21T05:10:20.901Z,22.18
2023-05-21T05:11:20.959Z,22.20
2023-05-21T05:12:21.010Z,22.21
2023-05-21T05:13:21.014Z,22.18
2023-05-21T05:14:21.074Z,22.23
2023-05-21T05:15:21.087Z,22.23
2023-05-21T05:16:21.163Z,22.21
2023-05-21T05:17:21.131Z,22.20
2023-05-21T05:18:21.142Z,22.23
2023-05-21T05:19:21.292Z,22.23
2023-05-21T05:20:21.226Z,22.24
2023-05-21T05:21:21.266Z,22.24
2023-05-21T05:22:21.288Z,22.24
2023-05-21T05:23:21.319Z,22.21
2023-05-21T05:24:21.351Z,22.24
2023-05-21T05:25:21.385Z,22.24
2023-05-21T05:26:21.998Z,22.27
2023-05-21T05:27:21.434Z,22.25
2023-05-21T05:28:21.452Z,22.27
2023-05-21T05:29:21.481Z,22.27
2023-05-21T05:30:21.536Z,22.24
2023-05-21T05:31:21.625Z,22.27
2023-05-21T05:32:21.601Z,22.25
2023-05-21T05:33:21.590Z,22.30
2023-05-21T05:34:21.634Z,22.25
2023-05-21T05:35:21.637Z,22.27
2023-05-21T05:36:21.683Z,22.28
2023-05-21T05:37:21.667Z,22.28
2023-05-21T05:38:21.700Z,22.30
2023-05-21T05:39:21.754Z,22.24
2023-05-21T05:40:21.803Z,22.28
2023-05-21T05:41:21.776Z,22.30
2023-05-21T05:42:21.779Z,22.28
2023-05-21T05:43:21.813Z,22.28
2023-05-21T05:44:21.833Z,22.28
2023-05-21T05:45:21.864Z,22.31
2023-05-21T05:46:21.951Z,22.33
2023-05-21T05:47:21.941Z,22.28
2023-05-21T05:48:21.927Z,22.30
2023-05-21T05:49:21.957Z,22.31
2023-05-21T05:50:21.970Z,22.31
2023-05-21T05:51:22.005Z,22.28
2023-05-21T05:52:22.007Z,22.28
2023-05-21T05:53:22.073Z,22.27
2023-05-21T05:54:22.058Z,22.27
2023-05-21T05:55:22.106Z,22.25
2023-05-21T05:56:22.168Z,22.30
2023-05-21T05:57:22.141Z,22.28
2023-05-21T05:58:22.182Z,22.28
2023-05-21T05:59:22.218Z,22.28
2023-05-21T06:00:22.255Z,22.30
2023-05-21T06:01:22.276Z,22.27
2023-05-21T06:02:22.378Z,22.31
2023-05-21T06:03:22.367Z,22.30
2023-05-21T06:04:22.339Z,22.30
2023-05-21T06:05:22.395Z,22.31
2023-05-21T06:06:22.451Z,22.30
2023-05-21T06:07:22.427Z,22.33
2023-05-21T06:08:22.474Z,22.31
2023-05-21T06:09:22.473Z,22.34
2023-05-21T06:10:22.499Z,22.34
2023-05-21T06:11:22.520Z,22.33
2023-05-21T06:12:22.513Z,22.35
2023-05-21T06:13:22.578Z,22.35
2023-05-21T06:14:22.568Z,22.34
2023-05-21T06:15:22.611Z,22.37
2023-05-21T06:16:22.671Z,22.38
2023-05-21T06:17:23.635Z,22.35
2023-05-21T06:18:22.661Z,22.38
2023-05-21T06:19:22.716Z,22.40
2023-05-21T06:20:22.710Z,22.41
2023-05-21T06:21:22.718Z,22.40
2023-05-21T06:22:24.902Z,22.38
2023-05-21T06:23:22.733Z,22.43
2023-05-21T06:24:22.729Z,22.44
2023-05-21T06:25:22.723Z,22.45
2023-05-21T06:26:22.723Z,22.45
2023-05-21T06:27:22.681Z,22.45
2023-05-21T06:28:22.689Z,22.45
2023-05-21T06:29:22.708Z,22.47
2023-05-21T06:30:22.714Z,22.47
2023-05-21T06:31:22.675Z,22.50
2023-05-21T06:32:22.746Z,22.51
2023-05-21T06:33:22.840Z,22.50
2023-05-21T06:34:22.674Z,22.51
2023-05-21T06:35:22.660Z,22.51
2023-05-21T06:36:22.647Z,22.54
2023-05-21T06:37:23.762Z,22.52
2023-05-21T06:38:22.628Z,22.51
2023-05-21T06:39:22.637Z,22.54
2023-05-21T06:40:22.602Z,22.54
2023-05-21T06:41:22.616Z,22.54
2023-05-21T06:42:22.576Z,22.52
2023-05-21T06:43:22.650Z,22.55
2023-05-21T06:44:22.638Z,22.54
2023-05-21T06:45:22.606Z,22.54
2023-05-21T06:46:22.583Z,22.57
2023-05-21T06:47:22.551Z,22.57
2023-05-21T06:48:22.543Z,22.58
2023-05-21T06:49:22.555Z,22.57
2023-05-21T06:50:22.535Z,22.60
2023-05-21T06:51:22.577Z,22.58
2023-05-21T06:52:22.519Z,22.58
2023-05-21T06:53:22.511Z,22.60
2023-05-21T06:54:22.604Z,22.61
2023-05-21T06:55:22.504Z,22.60
2023-05-21T06:56:22.508Z,22.61
2023-05-21T06:57:22.494Z,22.60
2023-05-21T06:58:22.497Z,22.61
2023-05-21T06:59:22.457Z,22.61
2023-05-21T07:00:22.547Z,22.64
2023-05-21T07:01:22.592Z,22.64
2023-05-21T07:02:22.472Z,22.64
2023-05-21T07:03:22.522Z,22.65
2023-05-21T07:04:22.472Z,22.67
2023-05-21T07:05:22.428Z,22.65
2023-05-21T07:06:22.429Z,22.67
2023-05-21T07:07:22.413Z,22.68
2023-05-21T07:08:22.402Z,22.70
2023-05-21T07:09:22.413Z,22.70
2023-05-21T07:10:22.381Z,22.68
2023-05-21T07:11:22.399Z,22.71
2023-05-21T07:12:22.375Z,22.74
2023-05-21T07:13:22.418Z,22.71
2023-05-21T07:14:22.388Z,22.71
2023-05-21T07:15:22.424Z,22.72
2023-05-21T07:16:22.450Z,22.74
2023-05-21T07:17:22.545Z,22.74
2023-05-21T07:18:22.481Z,22.74
2023-05-21T07:19:22.552Z,22.78
2023-05-21T07:20:22.472Z,22.76
2023-05-21T07:21:22.493Z,22.78
2023-05-21T07:22:22.507Z,22.79
2023-05-21T07:23:22.544Z,22.78
2023-05-21T07:24:23.546Z,22.81
2023-05-21T07:25:22.624Z,22.84
2023-05-21T07:26:22.661Z,22.84
2023-05-21T07:27:25.856Z,22.82
2023-05-21T07:28:22.681Z,22.84
2023-05-21T07:29:22.692Z,22.85
2023-05-21T07:30:22.668Z,22.84
2023-05-21T07:31:22.718Z,22.85
2023-05-21T07:32:22.703Z,22.90
2023-05-21T07:33:22.670Z,22.90
2023-05-21T07:34:22.661Z,22.91
2023-05-21T07:35:22.646Z,22.91
2023-05-21T07:36:22.633Z,22.93
2023-05-21T07:37:22.679Z,22.93
2023-05-21T07:38:22.589Z,22.91
2023-05-21T07:39:22.622Z,22.95
2023-05-21T07:40:22.632Z,22.95
2023-05-21T07:41:22.610Z,22.98
2023-05-21T07:42:22.568Z,22.97
2023-05-21T07:43:22.587Z,22.98
2023-05-21T07:44:22.589Z,22.99
2023-05-21T07:45:22.609Z,23.01
2023-05-21T07:46:22.628Z,22.99
2023-05-21T07:47:22.568Z,23.01
2023-05-21T07:48:22.542Z,23.02
2023-05-21T07:49:22.508Z,23.05
2023-05-21T07:50:22.552Z,23.05
2023-05-21T07:51:22.521Z,23.05
2023-05-21T07:52:22.578Z,23.07
2023-05-21T07:53:22.490Z,23.07
2023-05-21T07:54:22.519Z,23.08
2023-05-21T07:55:22.467Z,23.08
2023-05-21T07:56:22.479Z,23.08
2023-05-21T07:57:22.514Z,23.09
2023-05-21T07:58:22.551Z,23.08
2023-05-21T07:59:22.601Z,23.11
2023-05-21T08:00:22.676Z,23.08
2023-05-21T08:01:44.205Z,23.11
2023-05-21T08:02:44.241Z,23.12
2023-05-21T08:03:44.322Z,23.14
2023-05-21T08:04:44.168Z,23.17
2023-05-21T08:05:44.156Z,23.17
2023-05-21T08:06:44.178Z,23.19
2023-05-21T08:07:44.164Z,23.18
2023-05-21T08:08:44.127Z,23.19
2023-05-21T08:09:44.106Z,23.21
2023-05-21T08:10:44.090Z,23.21
2023-05-21T08:11:44.113Z,23.23
2023-05-21T08:12:44.119Z,23.23
2023-05-21T08:13:44.115Z,23.23
2023-05-21T08:14:44.079Z,23.26
2023-05-21T08:15:44.104Z,23.28
2023-05-21T08:16:44.098Z,23.26
2023-05-21T08:17:44.087Z,23.31
2023-05-21T08:18:44.102Z,23.31
2023-05-21T08:19:44.041Z,23.31
2023-05-21T08:20:44.032Z,23.31
2023-05-21T08:21:44.050Z,23.31
2023-05-21T08:22:44.031Z,23.33
2023-05-21T08:23:44.014Z,23.35
2023-05-21T08:24:43.998Z,23.37
2023-05-21T08:25:44.054Z,23.32
2023-05-21T08:26:44.022Z,23.35
2023-05-21T08:27:43.999Z,23.37
2023-05-21T08:28:43.967Z,23.40
2023-05-21T08:29:43.968Z,23.37
2023-05-21T08:30:43.971Z,23.40
2023-05-21T08:31:44.018Z,23.41
2023-05-21T08:32:44.005Z,23.44
2023-05-21T08:33:43.959Z,23.41
2023-05-21T08:34:43.955Z,23.44
2023-05-21T08:35:43.944Z,23.44
2023-05-21T08:36:43.919Z,23.44
2023-05-21T08:37:43.900Z,23.44
2023-05-21T08:38:43.902Z,23.45
2023-05-21T08:39:43.910Z,23.51
2023-05-21T08:40:43.887Z,23.48
2023-05-21T08:41:43.874Z,23.51
2023-05-21T08:42:43.886Z,23.48
2023-05-21T08:43:43.879Z,23.51
2023-05-21T08:44:43.880Z,23.51
2023-05-21T08:45:43.913Z,23.54
2023-05-21T08:46:43.885Z,23.51
2023-05-21T08:47:43.900Z,23.54
2023-05-21T08:48:43.851Z,23.54
2023-05-21T08:49:43.846Z,23.55
2023-05-21T08:50:43.831Z,23.55
2023-05-21T08:51:43.836Z,23.56
2023-05-21T08:52:43.853Z,23.58
2023-05-21T08:53:43.882Z,23.58
2023-05-21T08:54:43.878Z,23.59
2023-05-21T08:55:43.940Z,23.61
2023-05-21T08:56:43.938Z,23.61
2023-05-21T08:57:43.958Z,23.62
2023-05-21T08:58:43.971Z,23.62
2023-05-21T08:59:43.968Z,23.65
2023-05-21T09:00:43.994Z,23.65
2023-05-21T09:01:44.065Z,23.66
2023-05-21T09:02:44.161Z,23.66
2023-05-21T09:03:44.061Z,23.66
2023-05-21T09:04:44.098Z,23.69
2023-05-21T09:05:44.056Z,23.69
2023-05-21T09:06:44.070Z,23.66
2023-05-21T09:07:44.037Z,23.70
2023-05-21T09:08:44.081Z,23.70
2023-05-21T09:09:44.087Z,23.72
2023-05-21T09:10:44.106Z,23.73
2023-05-21T09:11:44.170Z,23.75
2023-05-21T09:12:44.174Z,23.72
2023-05-21T09:13:44.157Z,23.75
2023-05-21T09:14:44.225Z,23.75
2023-05-21T09:15:44.167Z,23.73
2023-05-21T09:16:44.206Z,23.76
2023-05-21T09:17:44.228Z,23.78
2023-05-21T09:18:44.196Z,23.79
2023-05-21T09:19:44.202Z,23.79
2023-05-21T09:20:44.195Z,23.79
2023-05-21T09:21:44.214Z,23.80
2023-05-21T09:22:44.191Z,23.82
2023-05-21T09:23:44.238Z,23.82
2023-05-21T09:24:44.204Z,23.82
2023-05-21T09:25:44.182Z,23.83
2023-05-21T09:26:44.286Z,23.82
2023-05-21T09:27:44.217Z,23.85
2023-05-21T09:28:44.196Z,23.86
2023-05-21T09:29:44.202Z,23.83
2023-05-21T09:30:44.199Z,23.86
2023-05-21T09:31:44.258Z,23.88
2023-05-21T09:32:44.192Z,23.88
2023-05-21T09:33:44.163Z,23.92
2023-05-21T09:34:44.186Z,23.90
2023-05-21T09:35:44.214Z,23.88
2023-05-21T09:36:44.304Z,23.90
2023-05-21T09:37:44.231Z,23.89
2023-05-21T09:38:44.231Z,23.92
2023-05-21T09:39:44.241Z,23.95
2023-05-21T09:40:44.295Z,23.93
2023-05-21T09:41:44.295Z,23.93
2023-05-21T09:42:44.356Z,23.93
2023-05-21T09:43:44.378Z,23.96
2023-05-21T09:44:44.379Z,23.96
2023-05-21T09:45:44.449Z,23.96
2023-05-21T09:46:44.521Z,23.99
2023-05-21T09:47:44.679Z,23.98
2023-05-21T09:48:44.545Z,23.99
2023-05-21T09:49:44.575Z,24.01
2023-05-21T09:50:44.618Z,24.01
2023-05-21T09:51:44.660Z,24.01
2023-05-21T09:52:44.668Z,24.03
2023-05-21T09:53:44.700Z,24.02
2023-05-21T09:54:44.744Z,24.02
2023-05-21T09:55:44.880Z,24.02
2023-05-21T09:56:44.847Z,24.03
2023-05-21T09:57:44.896Z,24.03
2023-05-21T09:58:44.946Z,24.05
2023-05-21T09:59:45.023Z,24.05
2023-05-21T10:00:45.048Z,24.03
2023-05-21T10:01:45.194Z,24.03
2023-05-21T10:02:45.181Z,24.02
2023-05-21T10:03:45.259Z,24.05
2023-05-21T10:04:45.337Z,24.05
2023-05-21T10:05:45.341Z,24.03
2023-05-21T10:06:45.368Z,24.02
2023-05-21T10:07:45.425Z,24.02
2023-05-21T10:08:45.504Z,24.02
2023-05-21T10:09:45.544Z,24.01
2023-05-21T10:10:45.623Z,24.03
2023-05-21T10:11:45.685Z,24.03
2023-05-21T10:12:45.734Z,24.03
2023-05-21T10:13:45.801Z,24.05
2023-05-21T10:14:45.888Z,24.05
2023-05-21T10:15:46.110Z,24.08
2023-05-21T10:16:46.131Z,24.08
2023-05-21T10:17:46.111Z,24.09
2023-05-21T10:18:46.107Z,24.12
2023-05-21T10:19:46.161Z,24.08
2023-05-21T10:20:46.237Z,24.11
2023-05-21T10:21:46.274Z,24.15
2023-05-21T10:22:46.351Z,24.15
2023-05-21T10:23:46.433Z,24.16
2023-05-21T10:24:46.469Z,24.15
2023-05-21T10:25:46.537Z,24.15
2023-05-21T10:26:46.586Z,24.15
2023-05-21T10:27:46.688Z,24.17
2023-05-21T10:28:46.716Z,24.16
2023-05-21T10:29:46.772Z,24.17
2023-05-21T10:30:46.863Z,24.19
2023-05-21T10:31:46.899Z,24.20
2023-05-21T10:32:47.058Z,24.19
2023-05-21T10:33:47.009Z,24.23
2023-05-21T10:34:47.070Z,24.23
2023-05-21T10:35:47.131Z,24.22
2023-05-21T10:36:47.200Z,24.22
2023-05-21T10:37:47.268Z,24.23
2023-05-21T10:38:47.276Z,24.26
2023-05-21T10:39:47.374Z,24.25
2023-05-21T10:40:47.436Z,24.26
2023-05-21T10:41:47.500Z,24.25
2023-05-21T10:42:47.556Z,24.27
2023-05-21T10:43:47.620Z,24.25
2023-05-21T10:44:47.676Z,24.27
2023-05-21T10:45:47.755Z,24.27
2023-05-21T10:46:47.772Z,24.26
2023-05-21T10:47:47.880Z,24.26
2023-05-21T10:48:47.855Z,24.26
2023-05-21T10:49:47.917Z,24.25
2023-05-21T10:50:47.970Z,24.25
2023-05-21T10:51:48.018Z,24.26
2023-05-21T10:52:48.059Z,24.26
2023-05-21T10:53:48.121Z,24.25
2023-05-21T10:54:48.177Z,24.26
2023-05-21T10:55:48.252Z,24.29
2023-05-21T10:56:48.912Z,24.29
2023-05-21T10:57:48.268Z,24.33
2023-05-21T10:58:48.356Z,24.29
2023-05-21T10:59:48.379Z,24.30
2023-05-21T11:00:48.524Z,24.29
2023-05-21T11:01:48.526Z,24.30
2023-05-21T11:02:48.599Z,24.32
2023-05-21T11:03:48.636Z,24.30
2023-05-21T11:04:48.656Z,24.32
2023-05-21T11:05:48.721Z,24.32
2023-05-21T11:06:48.741Z,24.32
2023-05-21T11:07:48.783Z,24.33
2023-05-21T11:08:48.841Z,24.33
2023-05-21T11:09:48.877Z,24.30
2023-05-21T11:10:48.977Z,24.32
2023-05-21T11:11:49.008Z,24.33
2023-05-21T11:12:49.038Z,24.32
2023-05-21T11:13:49.338Z,24.33
2023-05-21T11:14:49.146Z,24.33
2023-05-21T11:15:49.239Z,24.36
2023-05-21T11:16:49.278Z,24.36
2023-05-21T11:17:49.361Z,24.35
2023-05-21T11:18:49.361Z,24.38
2023-05-21T11:19:49.383Z,24.36
2023-05-21T11:20:49.432Z,24.38
2023-05-21T11:21:49.485Z,24.40
2023-05-21T11:22:49.502Z,24.38
2023-05-21T11:23:49.555Z,24.39
2023-05-21T11:24:50.899Z,24.39
2023-05-21T11:25:49.643Z,24.42
2023-05-21T11:26:49.743Z,24.42
2023-05-21T11:27:49.747Z,24.42
2023-05-21T11:28:49.788Z,24.42
2023-05-21T11:29:49.807Z,24.42
2023-05-21T11:30:49.902Z,24.42
2023-05-21T11:31:49.922Z,24.43
2023-05-21T11:32:50.001Z,24.42
2023-05-21T11:33:50.018Z,24.46
2023-05-21T11:34:50.087Z,24.49
2023-05-21T11:35:50.120Z,24.44
2023-05-21T11:36:50.225Z,24.46
2023-05-21T11:37:50.201Z,24.46
2023-05-21T11:38:50.232Z,24.43
2023-05-21T11:39:50.263Z,24.46
2023-05-21T11:40:50.341Z,24.46
2023-05-21T11:41:50.387Z,24.46
2023-05-21T11:42:50.407Z,24.48
2023-05-21T11:43:50.421Z,24.48
2023-05-21T11:44:50.466Z,24.49
2023-05-21T11:45:50.573Z,24.49
2023-05-21T11:46:50.680Z,24.48
2023-05-21T11:47:50.650Z,24.46
2023-05-21T11:48:50.663Z,24.48
2023-05-21T11:49:50.725Z,24.48
2023-05-21T11:50:50.779Z,24.48
2023-05-21T11:51:50.792Z,24.49
2023-05-21T11:52:50.830Z,24.49
2023-05-21T11:53:50.897Z,24.49
2023-05-21T11:54:50.992Z,24.48
2023-05-21T11:55:50.975Z,24.49
2023-05-21T11:56:51.049Z,24.48
2023-05-21T11:57:51.068Z,24.48
2023-05-21T11:58:51.099Z,24.49
2023-05-21T11:59:51.192Z,24.50
2023-05-21T12:00:51.233Z,24.48
2023-05-21T12:01:51.280Z,24.49
2023-05-21T12:02:51.449Z,24.48
2023-05-21T12:03:51.464Z,24.50
2023-05-21T12:04:51.450Z,24.49
2023-05-21T12:05:51.569Z,24.49
2023-05-21T12:06:51.562Z,24.49
2023-05-21T12:07:51.626Z,24.49
2023-05-21T12:08:51.681Z,24.49
2023-05-21T12:09:51.738Z,24.48
2023-05-21T12:10:51.821Z,24.50
2023-05-21T12:11:51.843Z,24.50
2023-05-21T12:12:55.704Z,24.52
2023-05-21T12:13:51.930Z,24.50
2023-05-21T12:14:51.894Z,24.52
2023-05-21T12:15:51.874Z,24.50
2023-05-21T12:16:51.999Z,24.52
2023-05-21T12:17:51.966Z,24.52
2023-05-21T12:18:51.914Z,24.50
2023-05-21T12:19:51.896Z,24.52
2023-05-21T12:20:51.872Z,24.49
2023-05-21T12:21:51.878Z,24.53
2023-05-21T12:22:51.863Z,24.53
2023-05-21T12:23:51.861Z,24.52
2023-05-21T12:24:51.905Z,24.55
2023-05-21T12:25:51.964Z,24.55
2023-05-21T12:26:52.010Z,24.55
2023-05-21T12:27:52.088Z,24.55
2023-05-21T12:28:52.097Z,24.55
2023-05-21T12:29:52.159Z,24.55
2023-05-21T12:30:52.246Z,24.55
2023-05-21T12:31:52.330Z,24.55
2023-05-21T12:32:52.406Z,24.56
2023-05-21T12:33:52.395Z,24.58
2023-05-21T12:34:52.451Z,24.55
2023-05-21T12:35:52.689Z,24.55
2023-05-21T12:36:52.600Z,24.56
2023-05-21T12:37:52.815Z,24.56
2023-05-21T12:38:52.681Z,24.58
2023-05-21T12:39:52.732Z,24.56
2023-05-21T12:40:52.787Z,24.56
2023-05-21T12:41:52.844Z,24.56
2023-05-21T12:42:52.907Z,24.56
2023-05-21T12:43:52.965Z,24.58
2023-05-21T12:44:53.018Z,24.59
2023-05-21T12:45:53.126Z,24.59
2023-05-21T12:46:53.135Z,24.56
2023-05-21T12:47:53.239Z,24.56
2023-05-21T12:48:53.207Z,24.58
2023-05-21T12:49:55.245Z,24.58
2023-05-21T12:50:53.371Z,24.58
2023-05-21T12:51:53.398Z,24.56
2023-05-21T12:52:53.483Z,24.56